Terminal Aerodrome Forecast
Issued by NWS Charleston, WV

Home | Current Version | Previous Version | Text Only | Print | Product List | Glossary On
Versions: 1 2 3 4 5 6 7 8 9 10 11 12 13 14 15 16 17 18 19 20 21
610
FTUS41 KRLX 141551 AAA
TAFHTS
TAF AMD
KHTS 141551Z 1416/1512 00000KT P6SM OVC100
     FM142000 11005KT 3SM -SN OVC040
     FM142200 11005KT 1SM -SN BR OVC015=

USA.gov is the U.S. government's official web portal to all federal, state and local government web resources and services.